Time;durP1;ratioP1;P1;durP2;ratioP2;P2;SDS_P1;SDS_P2;PMS_P1;PMS_P2;Temp;Humidity;BMP_temperature;BMP_pressure;BME280_temperature;BME280_humidity;BME280_pressure;Samples;Min_cycle;Max_cycle;Signal;HPM_P1;HPM_P2
2024/03/11 00:00:37;;;;;;;41.07;31.40;;;;;;;;;;5081719;28;20452;-73
2024/03/11 00:03:05;;;;;;;35.67;28.93;;;;;;;;;;5077727;28;20531;-72
2024/03/11 00:05:35;;;;;;;37.07;28.70;;;;;;;;;;5079130;28;20440;-73
2024/03/11 00:08:01;;;;;;;35.47;28.87;;;;;;;;;;5078175;28;20492;-72
2024/03/11 00:10:31;;;;;;;37.57;29.83;;;;;;;;;;5082271;28;20444;-74
2024/03/11 00:12:57;;;;;;;37.30;30.13;;;;;;;;;;5084306;28;20506;-73
2024/03/11 00:15:24;;;;;;;37.17;30.27;;;;;;;;;;5077484;28;20490;-73
2024/03/11 00:17:50;;;;;;;37.50;28.97;;;;;;;;;;5077635;28;20460;-74
2024/03/11 00:20:17;;;;;;;43.10;30.07;;;;;;;;;;5077692;28;21172;-72
2024/03/11 00:22:45;;;;;;;39.70;30.53;;;;;;;;;;5071908;28;20458;-72
2024/03/11 00:25:11;;;;;;;37.63;29.60;;;;;;;;;;5080558;28;20837;-72
2024/03/11 00:27:38;;;;;;;36.27;29.43;;;;;;;;;;5079496;28;20495;-72
2024/03/11 00:30:06;;;;;;;44.60;31.43;;;;;;;;;;5078281;28;20479;-73
2024/03/11 00:32:32;;;;;;;40.30;28.73;;;;;;;;;;5076875;28;20450;-72
2024/03/11 00:34:59;;;;;;;36.57;29.40;;;;;;;;;;5083082;28;20448;-76
2024/03/11 00:37:26;;;;;;;34.77;28.77;;;;;;;;;;5080814;28;20446;-77
2024/03/11 00:39:53;;;;;;;36.87;28.50;;;;;;;;;;5076294;28;20475;-76
2024/03/11 00:42:20;;;;;;;40.50;29.53;;;;;;;;;;5083017;28;20572;-76
2024/03/11 00:44:48;;;;;;;38.30;30.50;;;;;;;;;;5077234;28;20503;-77
2024/03/11 00:47:15;;;;;;;39.67;29.70;;;;;;;;;;5078149;28;20701;-74
2024/03/11 00:49:41;;;;;;;39.93;28.50;;;;;;;;;;5080864;28;20464;-74
2024/03/11 00:52:08;;;;;;;36.90;29.23;;;;;;;;;;5077331;28;20992;-74
2024/03/11 00:54:35;;;;;;;38.47;28.80;;;;;;;;;;5086927;28;20787;-74
2024/03/11 00:57:05;;;;;;;35.97;27.80;;;;;;;;;;5089735;28;20467;-75
2024/03/11 00:59:31;;;;;;;37.73;27.53;;;;;;;;;;5088023;28;20459;-72
2024/03/11 01:01:58;;;;;;;42.30;28.97;;;;;;;;;;5088908;28;20452;-75
2024/03/11 01:04:24;;;;;;;34.03;27.33;;;;;;;;;;5083370;28;20487;-75
2024/03/11 01:06:51;;;;;;;39.13;28.03;;;;;;;;;;5080809;28;20440;-76
2024/03/11 01:09:20;;;;;;;41.37;28.40;;;;;;;;;;5083746;28;20479;-76
2024/03/11 01:11:46;;;;;;;35.70;28.17;;;;;;;;;;5084639;28;20530;-75
2024/03/11 01:14:14;;;;;;;39.07;29.20;;;;;;;;;;5078761;28;20447;-74
2024/03/11 01:16:42;;;;;;;41.57;28.23;;;;;;;;;;5082125;28;20811;-73
2024/03/11 01:19:08;;;;;;;37.60;31.30;;;;;;;;;;5080611;28;20476;-74
2024/03/11 01:21:35;;;;;;;37.60;26.87;;;;;;;;;;5083309;28;20568;-73
2024/03/11 01:24:03;;;;;;;37.07;27.40;;;;;;;;;;5082130;28;20479;-72
2024/03/11 01:26:29;;;;;;;36.37;26.50;;;;;;;;;;5077684;28;21298;-74
2024/03/11 01:28:55;;;;;;;39.27;28.27;;;;;;;;;;5075854;28;20479;-75
2024/03/11 01:31:24;;;;;;;36.47;28.13;;;;;;;;;;5080048;28;20444;-74
2024/03/11 01:33:50;;;;;;;39.43;28.70;;;;;;;;;;5079944;28;20459;-75
2024/03/11 01:36:17;;;;;;;43.03;29.83;;;;;;;;;;5079366;28;20490;-74
2024/03/11 01:38:46;;;;;;;40.00;29.80;;;;;;;;;;5081452;28;20450;-73
2024/03/11 01:41:12;;;;;;;38.73;30.80;;;;;;;;;;5067633;28;20480;-73
2024/03/11 01:43:40;;;;;;;37.60;28.73;;;;;;;;;;5075025;28;20477;-74
2024/03/11 01:46:07;;;;;;;38.10;29.87;;;;;;;;;;5076908;28;20448;-73
2024/03/11 01:48:35;;;;;;;37.60;29.30;;;;;;;;;;5081784;28;20447;-72
2024/03/11 01:51:03;;;;;;;39.77;29.80;;;;;;;;;;5077309;28;20481;-72
2024/03/11 01:53:30;;;;;;;43.40;30.27;;;;;;;;;;5083564;28;20474;-72
2024/03/11 01:55:57;;;;;;;44.57;30.50;;;;;;;;;;5076771;28;20454;-77
2024/03/11 01:58:24;;;;;;;37.33;30.57;;;;;;;;;;5083007;28;20479;-72
2024/03/11 02:00:50;;;;;;;39.17;29.80;;;;;;;;;;5079201;28;20722;-74
2024/03/11 02:03:17;;;;;;;43.20;29.43;;;;;;;;;;5079709;28;20470;-75
2024/03/11 02:05:45;;;;;;;38.03;28.70;;;;;;;;;;5082296;28;20524;-75
2024/03/11 02:08:12;;;;;;;36.63;27.27;;;;;;;;;;5076871;28;20540;-75
2024/03/11 02:10:40;;;;;;;39.57;29.83;;;;;;;;;;5075576;28;20452;-74
2024/03/11 02:13:07;;;;;;;37.73;28.90;;;;;;;;;;5083265;28;20483;-75
2024/03/11 02:15:33;;;;;;;38.80;28.80;;;;;;;;;;5078351;28;20910;-74
2024/03/11 02:18:00;;;;;;;36.70;28.57;;;;;;;;;;5078473;28;20512;-72
2024/03/11 02:20:28;;;;;;;39.70;29.43;;;;;;;;;;5084385;28;20447;-73
2024/03/11 02:22:56;;;;;;;37.73;27.97;;;;;;;;;;5079131;28;20739;-72
2024/03/11 02:25:26;;;;;;;35.57;29.20;;;;;;;;;;5079452;28;20567;-74
2024/03/11 02:27:54;;;;;;;37.37;29.80;;;;;;;;;;5085699;28;20443;-74
2024/03/11 02:30:21;;;;;;;40.60;29.47;;;;;;;;;;5078002;28;20476;-76
2024/03/11 02:32:47;;;;;;;36.77;28.27;;;;;;;;;;5076526;28;20459;-76
2024/03/11 02:35:15;;;;;;;37.70;29.77;;;;;;;;;;5082660;28;20446;-77
2024/03/11 02:37:44;;;;;;;41.17;28.73;;;;;;;;;;5079147;28;20464;-73
2024/03/11 02:40:11;;;;;;;39.90;30.17;;;;;;;;;;5081157;28;20511;-74
2024/03/11 02:42:39;;;;;;;40.67;29.90;;;;;;;;;;5084255;28;21013;-74
2024/03/11 02:45:07;;;;;;;36.53;27.80;;;;;;;;;;5079176;28;20518;-74
2024/03/11 02:47:34;;;;;;;38.77;28.00;;;;;;;;;;5079346;28;20479;-73
2024/03/11 02:50:00;;;;;;;42.93;29.50;;;;;;;;;;5086909;28;20482;-74
2024/03/11 02:52:27;;;;;;;44.53;29.83;;;;;;;;;;5078073;28;20452;-74
2024/03/11 02:54:54;;;;;;;40.67;30.10;;;;;;;;;;5078332;28;20501;-74
2024/03/11 02:57:22;;;;;;;41.13;30.23;;;;;;;;;;5074858;28;20511;-75
2024/03/11 02:59:50;;;;;;;38.90;29.03;;;;;;;;;;5075320;28;20451;-76
2024/03/11 03:02:18;;;;;;;42.87;30.30;;;;;;;;;;5080639;28;20468;-74
2024/03/11 03:04:45;;;;;;;37.83;28.33;;;;;;;;;;5081138;28;20512;-73
2024/03/11 03:07:13;;;;;;;37.50;29.63;;;;;;;;;;5078828;28;20464;-74
2024/03/11 03:09:40;;;;;;;40.33;30.67;;;;;;;;;;5079068;28;20535;-74
2024/03/11 03:12:09;;;;;;;42.80;29.73;;;;;;;;;;5079197;28;20498;-74
2024/03/11 03:14:36;;;;;;;42.60;30.23;;;;;;;;;;5084895;28;20444;-74
2024/03/11 03:17:04;;;;;;;37.23;29.60;;;;;;;;;;5079169;28;20487;-73
2024/03/11 03:19:30;;;;;;;42.30;29.90;;;;;;;;;;5072913;28;20991;-73
2024/03/11 03:21:56;;;;;;;40.90;28.67;;;;;;;;;;5087936;28;20519;-73
2024/03/11 03:24:23;;;;;;;42.00;31.73;;;;;;;;;;5068916;28;20518;-74
2024/03/11 03:26:50;;;;;;;38.03;29.47;;;;;;;;;;5075996;28;20460;-73
2024/03/11 03:29:16;;;;;;;39.67;28.37;;;;;;;;;;5077231;28;20523;-74
2024/03/11 03:31:42;;;;;;;38.40;30.53;;;;;;;;;;5082322;28;20483;-73
2024/03/11 03:34:10;;;;;;;37.73;29.87;;;;;;;;;;5074435;28;20487;-75
2024/03/11 03:36:38;;;;;;;41.80;29.37;;;;;;;;;;5078011;28;20483;-74
2024/03/11 03:39:05;;;;;;;36.77;28.80;;;;;;;;;;5079562;28;20459;-74
2024/03/11 03:41:31;;;;;;;36.57;28.40;;;;;;;;;;5082283;28;20463;-75
2024/03/11 03:43:59;;;;;;;34.80;28.03;;;;;;;;;;5071499;28;20490;-74
2024/03/11 03:46:25;;;;;;;41.87;30.90;;;;;;;;;;5083667;28;20539;-73
2024/03/11 03:48:52;;;;;;;35.70;28.37;;;;;;;;;;5078621;28;20463;-73
2024/03/11 03:51:19;;;;;;;40.30;28.83;;;;;;;;;;5077892;28;20476;-74
2024/03/11 03:53:46;;;;;;;38.33;30.57;;;;;;;;;;5088239;28;20478;-74
2024/03/11 03:56:12;;;;;;;36.23;28.30;;;;;;;;;;5081027;28;20482;-73
2024/03/11 03:58:39;;;;;;;40.07;30.10;;;;;;;;;;5078557;28;20534;-73
2024/03/11 04:01:07;;;;;;;40.90;30.30;;;;;;;;;;5080339;28;20898;-74
2024/03/11 04:03:34;;;;;;;39.03;30.30;;;;;;;;;;5082051;28;20522;-73
2024/03/11 04:06:00;;;;;;;41.50;32.03;;;;;;;;;;5079768;28;20480;-74
2024/03/11 04:08:29;;;;;;;38.13;30.53;;;;;;;;;;5080221;28;20463;-77
2024/03/11 04:10:55;;;;;;;39.40;29.33;;;;;;;;;;5080235;28;20452;-73
2024/03/11 04:13:22;;;;;;;45.27;32.27;;;;;;;;;;5077665;28;20535;-74
2024/03/11 04:15:48;;;;;;;40.00;30.80;;;;;;;;;;5079462;28;20520;-74
2024/03/11 04:18:15;;;;;;;46.60;31.03;;;;;;;;;;5077877;28;20445;-72
2024/03/11 04:20:43;;;;;;;48.90;30.43;;;;;;;;;;5082952;28;20888;-74
2024/03/11 04:23:12;;;;;;;41.47;29.80;;;;;;;;;;5077448;28;20474;-73
2024/03/11 04:25:39;;;;;;;39.97;29.30;;;;;;;;;;5085745;28;20478;-74
2024/03/11 04:28:08;;;;;;;43.57;30.83;;;;;;;;;;5077477;28;20483;-74
2024/03/11 04:30:35;;;;;;;40.40;31.00;;;;;;;;;;5079752;28;20457;-73
2024/03/11 04:33:02;;;;;;;43.70;31.40;;;;;;;;;;5082843;28;20479;-74
2024/03/11 04:35:31;;;;;;;44.03;30.50;;;;;;;;;;5082448;28;20480;-74
2024/03/11 04:37:58;;;;;;;46.70;32.43;;;;;;;;;;5084221;28;20440;-75
2024/03/11 04:40:25;;;;;;;45.60;32.63;;;;;;;;;;5079275;28;20460;-75
2024/03/11 04:42:54;;;;;;;46.77;32.67;;;;;;;;;;5080781;28;20460;-75
2024/03/11 04:45:20;;;;;;;44.50;30.90;;;;;;;;;;5081598;28;20479;-75
2024/03/11 04:47:46;;;;;;;42.43;31.10;;;;;;;;;;5083173;28;20499;-75
2024/03/11 04:50:14;;;;;;;48.60;31.00;;;;;;;;;;5084101;28;20527;-76
2024/03/11 04:52:40;;;;;;;43.70;31.87;;;;;;;;;;5090579;28;21087;-76
2024/03/11 04:55:07;;;;;;;43.50;31.57;;;;;;;;;;5073157;28;21814;-74
2024/03/11 04:57:34;;;;;;;46.40;32.33;;;;;;;;;;5080284;28;20500;-75
2024/03/11 05:00:02;;;;;;;48.87;32.23;;;;;;;;;;5076311;28;20452;-75
2024/03/11 05:02:35;;;;;;;51.77;36.50;;;;;;;;;;5080322;28;20506;-74
2024/03/11 05:05:01;;;;;;;50.90;34.00;;;;;;;;;;5079956;28;21318;-74
2024/03/11 05:07:28;;;;;;;51.00;34.37;;;;;;;;;;5082103;28;20478;-74
2024/03/11 05:09:54;;;;;;;47.90;33.00;;;;;;;;;;5080382;28;20468;-74
2024/03/11 05:12:22;;;;;;;44.40;33.00;;;;;;;;;;5090246;28;20516;-75
2024/03/11 05:14:49;;;;;;;48.57;33.23;;;;;;;;;;5076300;28;20540;-73
2024/03/11 05:17:17;;;;;;;46.83;34.60;;;;;;;;;;5076588;28;20991;-73
2024/03/11 05:19:43;;;;;;;50.50;35.80;;;;;;;;;;5078065;28;20455;-74
2024/03/11 05:22:09;;;;;;;44.40;33.37;;;;;;;;;;5081405;28;20906;-73
2024/03/11 05:24:38;;;;;;;48.30;34.20;;;;;;;;;;5088966;28;20607;-74
2024/03/11 05:27:05;;;;;;;49.47;35.90;;;;;;;;;;5084008;28;20467;-74
2024/03/11 05:29:32;;;;;;;55.43;35.73;;;;;;;;;;5077433;28;20483;-77
2024/03/11 05:31:59;;;;;;;48.50;34.57;;;;;;;;;;5088809;28;20460;-77
2024/03/11 05:34:26;;;;;;;50.00;34.20;;;;;;;;;;5084078;28;20440;-76
2024/03/11 05:36:53;;;;;;;52.37;36.00;;;;;;;;;;5076584;28;20495;-77
2024/03/11 05:39:20;;;;;;;48.20;33.60;;;;;;;;;;5085509;28;20530;-73
2024/03/11 05:41:46;;;;;;;49.87;34.87;;;;;;;;;;5075009;28;20996;-75
2024/03/11 05:44:15;;;;;;;49.70;34.43;;;;;;;;;;5080214;28;20506;-76
2024/03/11 05:46:41;;;;;;;52.83;34.47;;;;;;;;;;5079713;28;20479;-76
2024/03/11 05:49:13;;;;;;;51.33;34.80;;;;;;;;;;5081630;28;20997;-78
2024/03/11 05:51:41;;;;;;;52.03;35.87;;;;;;;;;;5079072;28;20529;-76
2024/03/11 05:54:07;;;;;;;52.33;38.87;;;;;;;;;;5080137;28;20476;-75
2024/03/11 05:56:36;;;;;;;54.90;35.93;;;;;;;;;;5077847;28;20500;-75
2024/03/11 05:59:03;;;;;;;61.57;36.13;;;;;;;;;;5085641;28;20479;-68
2024/03/11 06:01:30;;;;;;;56.77;37.10;;;;;;;;;;5079924;28;20515;-81
2024/03/11 06:03:57;;;;;;;62.73;39.30;;;;;;;;;;5084196;28;20490;-85
2024/03/11 06:06:23;;;;;;;55.77;36.50;;;;;;;;;;5090443;28;20494;-81
2024/03/11 06:08:51;;;;;;;56.83;35.80;;;;;;;;;;5079057;28;20463;-83
2024/03/11 06:11:17;;;;;;;54.23;36.30;;;;;;;;;;5078255;28;20540;-82
2024/03/11 06:13:44;;;;;;;55.67;38.00;;;;;;;;;;5081503;28;20456;-83
2024/03/11 06:16:12;;;;;;;57.50;37.33;;;;;;;;;;5075102;28;20464;-81
2024/03/11 06:18:39;;;;;;;62.90;37.93;;;;;;;;;;5082858;28;20456;-80
2024/03/11 06:21:05;;;;;;;61.40;38.83;;;;;;;;;;5078763;28;20471;-84
2024/03/11 06:23:32;;;;;;;57.90;37.67;;;;;;;;;;5078898;28;20435;-81
2024/03/11 06:26:00;;;;;;;66.23;40.57;;;;;;;;;;5077871;28;20503;-84
2024/03/11 06:28:27;;;;;;;59.47;38.27;;;;;;;;;;5077159;28;20456;-84
2024/03/11 06:30:53;;;;;;;71.43;40.40;;;;;;;;;;5078155;28;20523;-79
2024/03/11 06:33:22;;;;;;;62.07;39.07;;;;;;;;;;5076391;28;20480;-81
2024/03/11 06:35:49;;;;;;;61.13;38.10;;;;;;;;;;5075187;28;20451;-82
2024/03/11 06:38:16;;;;;;;61.90;38.73;;;;;;;;;;5078340;28;21076;-84
2024/03/11 06:40:43;;;;;;;66.43;40.27;;;;;;;;;;5078819;28;20459;-84
2024/03/11 06:43:11;;;;;;;60.73;39.33;;;;;;;;;;5078157;28;20486;-79
2024/03/11 06:45:37;;;;;;;59.00;38.60;;;;;;;;;;5067976;28;20506;-81
2024/03/11 06:48:04;;;;;;;58.43;37.23;;;;;;;;;;5074423;28;20447;-82
2024/03/11 06:50:32;;;;;;;61.80;39.43;;;;;;;;;;5077710;28;20458;-81
2024/03/11 06:52:59;;;;;;;64.93;39.77;;;;;;;;;;5078867;28;20463;-84
2024/03/11 06:55:25;;;;;;;65.40;40.97;;;;;;;;;;5075988;28;20472;-83
2024/03/11 06:57:51;;;;;;;63.90;39.67;;;;;;;;;;5078233;28;20541;-82
2024/03/11 07:00:20;;;;;;;67.93;40.53;;;;;;;;;;5078492;28;20479;-84
2024/03/11 07:02:47;;;;;;;62.17;39.87;;;;;;;;;;5074554;28;21069;-84
2024/03/11 07:05:14;;;;;;;66.07;38.43;;;;;;;;;;5077325;28;20486;-82
2024/03/11 07:07:42;;;;;;;68.07;42.00;;;;;;;;;;5078439;28;20451;-81
2024/03/11 07:10:10;;;;;;;58.20;39.03;;;;;;;;;;5085861;28;20479;-83
2024/03/11 07:12:37;;;;;;;66.80;39.70;;;;;;;;;;5084105;28;20468;-82
2024/03/11 07:15:05;;;;;;;59.33;38.80;;;;;;;;;;5085641;28;20442;-82
2024/03/11 07:17:34;;;;;;;68.17;39.60;;;;;;;;;;5083880;28;20462;-82
2024/03/11 07:20:00;;;;;;;74.93;42.00;;;;;;;;;;5093162;28;20534;-80
2024/03/11 07:22:27;;;;;;;67.73;41.57;;;;;;;;;;5078336;28;20451;-84
2024/03/11 07:24:54;;;;;;;63.90;38.93;;;;;;;;;;5077838;28;20456;-83
2024/03/11 07:27:21;;;;;;;61.83;39.47;;;;;;;;;;5082263;28;20529;-83
2024/03/11 07:29:48;;;;;;;66.53;42.30;;;;;;;;;;5075753;28;20582;-80
2024/03/11 07:32:15;;;;;;;63.13;39.80;;;;;;;;;;5078172;28;20452;-83
2024/03/11 07:34:42;;;;;;;67.70;42.50;;;;;;;;;;5085284;28;20501;-82
2024/03/11 07:37:09;;;;;;;67.93;41.67;;;;;;;;;;5074889;28;20516;-77
2024/03/11 07:39:36;;;;;;;61.40;41.03;;;;;;;;;;5085193;28;20476;-84
2024/03/11 07:42:02;;;;;;;61.63;39.40;;;;;;;;;;5090534;28;20499;-81
2024/03/11 07:44:29;;;;;;;60.43;39.87;;;;;;;;;;5074836;28;20448;-81
2024/03/11 07:46:55;;;;;;;66.20;41.83;;;;;;;;;;5077067;28;20514;-72
2024/03/11 07:49:22;;;;;;;66.00;42.10;;;;;;;;;;5076710;28;20510;-70
2024/03/11 07:51:49;;;;;;;64.23;42.47;;;;;;;;;;5077236;28;20495;-70
2024/03/11 07:54:16;;;;;;;57.57;41.03;;;;;;;;;;5077009;28;20484;-72
2024/03/11 07:56:42;;;;;;;66.30;44.27;;;;;;;;;;5067126;28;20954;-74
2024/03/11 07:59:09;;;;;;;67.93;42.77;;;;;;;;;;5075203;28;21084;-72
2024/03/11 08:01:36;;;;;;;67.30;45.07;;;;;;;;;;5076193;28;20448;-72
2024/03/11 08:04:02;;;;;;;60.60;43.70;;;;;;;;;;5076122;28;20571;-70
2024/03/11 08:06:30;;;;;;;67.90;45.27;;;;;;;;;;5077768;28;20480;-69
2024/03/11 08:08:58;;;;;;;67.73;43.27;;;;;;;;;;5078327;28;20518;-67
2024/03/11 08:11:24;;;;;;;66.40;43.60;;;;;;;;;;5076953;28;20451;-70
2024/03/11 08:13:51;;;;;;;65.53;42.07;;;;;;;;;;5079937;28;20499;-73
2024/03/11 08:16:18;;;;;;;65.13;41.90;;;;;;;;;;5078099;28;20803;-69
2024/03/11 08:18:44;;;;;;;62.00;41.37;;;;;;;;;;5077940;28;21199;-75
2024/03/11 08:21:11;;;;;;;62.90;41.60;;;;;;;;;;5077584;28;21039;-77
2024/03/11 08:23:38;;;;;;;62.67;43.50;;;;;;;;;;5068670;28;20436;-75
2024/03/11 08:26:07;;;;;;;61.50;41.40;;;;;;;;;;5076868;28;20486;-70
2024/03/11 08:28:33;;;;;;;59.43;42.37;;;;;;;;;;5077578;28;20448;-72
2024/03/11 08:31:00;;;;;;;58.77;41.17;;;;;;;;;;5078187;28;20543;-71
2024/03/11 08:33:27;;;;;;;58.63;40.37;;;;;;;;;;5080956;28;20559;-70
2024/03/11 08:35:55;;;;;;;58.37;39.20;;;;;;;;;;5076891;28;20498;-74
2024/03/11 08:38:23;;;;;;;58.27;41.30;;;;;;;;;;5077398;28;20451;-83
2024/03/11 08:40:50;;;;;;;49.27;37.13;;;;;;;;;;5076094;28;20499;-78
2024/03/11 08:43:18;;;;;;;52.80;35.20;;;;;;;;;;5076891;28;20535;-81
2024/03/11 08:45:45;;;;;;;56.13;39.60;;;;;;;;;;5077014;28;20506;-77
2024/03/11 08:48:13;;;;;;;50.50;35.73;;;;;;;;;;5076527;28;20444;-79
2024/03/11 08:50:40;;;;;;;56.23;41.13;;;;;;;;;;5077080;28;20535;-72
2024/03/11 08:53:07;;;;;;;55.13;39.43;;;;;;;;;;5077392;28;20479;-73
2024/03/11 08:55:34;;;;;;;53.30;37.73;;;;;;;;;;5075778;28;20460;-73
2024/03/11 08:58:00;;;;;;;51.03;37.03;;;;;;;;;;5076102;28;21084;-76
2024/03/11 09:00:28;;;;;;;50.77;35.87;;;;;;;;;;5076248;28;20483;-71
2024/03/11 09:02:55;;;;;;;48.53;38.57;;;;;;;;;;5075333;28;20482;-71
2024/03/11 09:05:22;;;;;;;49.83;37.70;;;;;;;;;;5075367;28;20444;-74
2024/03/11 09:07:50;;;;;;;48.33;35.70;;;;;;;;;;5075915;28;20841;-75
2024/03/11 09:10:17;;;;;;;49.20;36.80;;;;;;;;;;5076170;28;20467;-72
2024/03/11 09:12:44;;;;;;;50.23;37.20;;;;;;;;;;5076343;28;20458;-74
2024/03/11 09:15:15;;;;;;;44.40;34.20;;;;;;;;;;5077477;28;20447;-75
2024/03/11 09:17:43;;;;;;;42.73;33.10;;;;;;;;;;5082574;28;20506;-71
2024/03/11 09:20:15;;;;;;;39.83;32.10;;;;;;;;;;5079621;28;20490;-75
2024/03/11 09:22:42;;;;;;;39.80;32.40;;;;;;;;;;5083972;28;20480;-68
2024/03/11 09:25:08;;;;;;;36.93;30.17;;;;;;;;;;5080174;28;20455;-71
2024/03/11 09:27:35;;;;;;;43.00;33.53;;;;;;;;;;5079153;28;20522;-71
2024/03/11 09:30:03;;;;;;;36.73;28.77;;;;;;;;;;5076996;28;20475;-68
2024/03/11 09:32:29;;;;;;;38.30;29.93;;;;;;;;;;5076850;28;20537;-69
2024/03/11 09:34:58;;;;;;;40.20;31.63;;;;;;;;;;5081030;28;20476;-73
2024/03/11 09:37:24;;;;;;;39.20;28.70;;;;;;;;;;5079900;28;20859;-71
2024/03/11 09:39:51;;;;;;;42.77;30.67;;;;;;;;;;5079827;28;20983;-67
2024/03/11 09:42:19;;;;;;;38.90;29.23;;;;;;;;;;5073431;28;20467;-65
2024/03/11 09:44:45;;;;;;;41.13;29.83;;;;;;;;;;5075247;28;20447;-70
2024/03/11 09:47:11;;;;;;;36.77;29.00;;;;;;;;;;5079624;28;20483;-72
2024/03/11 09:49:37;;;;;;;38.57;28.63;;;;;;;;;;5079540;28;20233;-69
2024/03/11 09:52:05;;;;;;;39.27;28.83;;;;;;;;;;5082801;28;21774;-72
2024/03/11 09:54:32;;;;;;;39.00;28.20;;;;;;;;;;5081278;28;20444;-69
2024/03/11 09:56:59;;;;;;;36.80;26.50;;;;;;;;;;5076693;28;20467;-72
2024/03/11 09:59:25;;;;;;;35.70;26.97;;;;;;;;;;5079664;28;20483;-68
2024/03/11 10:01:53;;;;;;;32.67;25.50;;;;;;;;;;5071029;28;20944;-71
2024/03/11 10:04:21;;;;;;;35.50;26.10;;;;;;;;;;5086640;28;20456;-70
2024/03/11 10:06:56;;;;;;;36.63;26.13;;;;;;;;;;5082053;28;20480;-68
2024/03/11 10:09:24;;;;;;;34.60;25.10;;;;;;;;;;5079650;28;20435;-69
2024/03/11 10:12:00;;;;;;;33.17;23.07;;;;;;;;;;5078500;28;20455;-72
2024/03/11 10:14:27;;;;;;;29.77;22.30;;;;;;;;;;5079812;28;20460;-77
2024/03/11 10:16:53;;;;;;;31.97;24.20;;;;;;;;;;5079111;28;20542;-72
2024/03/11 10:19:22;;;;;;;28.40;22.13;;;;;;;;;;5079310;28;20443;-70
2024/03/11 10:21:49;;;;;;;26.60;20.20;;;;;;;;;;5078526;28;20491;-69
2024/03/11 10:24:15;;;;;;;26.50;19.63;;;;;;;;;;5078654;28;20448;-73
2024/03/11 10:26:45;;;;;;;23.07;18.50;;;;;;;;;;5077676;28;20484;-77
2024/03/11 10:29:13;;;;;;;23.20;18.07;;;;;;;;;;5072266;28;20467;-74
2024/03/11 10:31:42;;;;;;;22.93;16.70;;;;;;;;;;5073115;28;20468;-76
2024/03/11 10:34:12;;;;;;;18.90;15.47;;;;;;;;;;5079367;28;20444;-74
2024/03/11 10:36:40;;;;;;;24.80;15.37;;;;;;;;;;5082293;28;20486;-69
2024/03/11 10:39:18;;;;;;;18.93;15.47;;;;;;;;;;5078660;28;20444;-70
2024/03/11 10:41:46;;;;;;;18.20;14.60;;;;;;;;;;5078216;28;20519;-70
2024/03/11 10:44:15;;;;;;;16.20;14.00;;;;;;;;;;5080199;28;20452;-71
2024/03/11 10:46:41;;;;;;;19.07;14.30;;;;;;;;;;5076837;28;20507;-75
2024/03/11 10:49:12;;;;;;;16.03;13.53;;;;;;;;;;5078887;28;20444;-70
2024/03/11 10:51:43;;;;;;;16.30;13.13;;;;;;;;;;5075236;28;20472;-82
2024/03/11 10:54:13;;;;;;;15.13;11.63;;;;;;;;;;5077809;28;20455;-75
2024/03/11 10:56:40;;;;;;;13.67;12.03;;;;;;;;;;5078249;28;21096;-75
2024/03/11 10:59:14;;;;;;;14.87;12.73;;;;;;;;;;5078453;28;21304;-76
2024/03/11 11:01:44;;;;;;;16.27;11.33;;;;;;;;;;5072368;28;20464;-73
2024/03/11 11:04:14;;;;;;;12.00;10.63;;;;;;;;;;5080401;28;20456;-74
2024/03/11 11:06:43;;;;;;;13.50;9.70;;;;;;;;;;5085627;28;20475;-74
2024/03/11 11:09:12;;;;;;;11.47;9.53;;;;;;;;;;5075856;28;20444;-74
2024/03/11 11:11:49;;;;;;;11.10;8.97;;;;;;;;;;5072841;28;20456;-75
2024/03/11 11:14:18;;;;;;;12.07;9.87;;;;;;;;;;5077633;28;20534;-74
2024/03/11 11:16:45;;;;;;;13.23;9.50;;;;;;;;;;5078793;28;20444;-74
2024/03/11 11:19:14;;;;;;;9.33;8.47;;;;;;;;;;5074739;28;20458;-73
2024/03/11 11:21:43;;;;;;;11.10;8.77;;;;;;;;;;5076471;28;20456;-74
2024/03/11 11:24:26;;;;;;;11.53;10.33;;;;;;;;;;5083923;28;20490;-75
2024/03/11 11:26:54;;;;;;;12.30;10.03;;;;;;;;;;5076629;28;20590;-73
2024/03/11 11:29:24;;;;;;;18.10;10.70;;;;;;;;;;5078638;28;20436;-64
2024/03/11 11:32:00;;;;;;;12.33;9.80;;;;;;;;;;5077522;28;21108;-67
2024/03/11 11:34:45;;;;;;;10.17;9.13;;;;;;;;;;5082390;28;21034;-67
2024/03/11 11:37:13;;;;;;;11.07;9.90;;;;;;;;;;5078876;28;20447;-70
2024/03/11 11:39:42;;;;;;;11.50;9.30;;;;;;;;;;5076948;28;20542;-66
2024/03/11 11:42:32;;;;;;;10.13;8.90;;;;;;;;;;5078790;28;20452;-70
2024/03/11 11:45:00;;;;;;;10.70;9.43;;;;;;;;;;5078498;28;20452;-66
2024/03/11 11:47:27;;;;;;;10.60;8.90;;;;;;;;;;5082587;28;20957;-67
2024/03/11 11:49:54;;;;;;;11.10;9.63;;;;;;;;;;5078164;28;20440;-68
2024/03/11 11:52:22;;;;;;;9.93;8.93;;;;;;;;;;5072614;28;20684;-70
2024/03/11 11:54:50;;;;;;;8.57;7.67;;;;;;;;;;5078828;28;20450;-68
2024/03/11 11:57:19;;;;;;;7.27;6.57;;;;;;;;;;5078139;28;20522;-67
2024/03/11 11:59:46;;;;;;;6.67;6.10;;;;;;;;;;5078313;28;20874;-66
2024/03/11 12:02:19;;;;;;;6.67;6.10;;;;;;;;;;5080249;28;20456;-67
2024/03/11 12:04:49;;;;;;;5.90;5.40;;;;;;;;;;5077206;28;20452;-68
2024/03/11 12:07:22;;;;;;;4.93;4.63;;;;;;;;;;5071750;28;20556;-67
2024/03/11 12:09:50;;;;;;;3.87;3.67;;;;;;;;;;5078640;28;20452;-68
2024/03/11 12:12:24;;;;;;;4.80;4.50;;;;;;;;;;5078017;28;20466;-66
2024/03/11 12:14:51;;;;;;;4.77;4.50;;;;;;;;;;5078482;28;20518;-66
2024/03/11 12:17:19;;;;;;;4.43;4.20;;;;;;;;;;5070258;28;20441;-71
2024/03/11 12:19:45;;;;;;;4.83;4.53;;;;;;;;;;5069186;28;20444;-64
2024/03/11 12:22:13;;;;;;;3.90;3.60;;;;;;;;;;5078671;28;20483;-66
2024/03/11 12:24:41;;;;;;;3.07;2.87;;;;;;;;;;5072546;28;20448;-67
2024/03/11 12:27:12;;;;;;;3.50;3.20;;;;;;;;;;5084312;28;20549;-76
2024/03/11 12:29:39;;;;;;;3.10;2.90;;;;;;;;;;5078790;28;20977;-73
2024/03/11 12:32:11;;;;;;;4.13;3.00;;;;;;;;;;5066415;28;20448;-69
2024/03/11 12:34:39;;;;;;;2.70;2.60;;;;;;;;;;5077918;28;20544;-68
2024/03/11 12:37:06;;;;;;;3.70;3.00;;;;;;;;;;5077640;28;20444;-67
2024/03/11 12:39:42;;;;;;;3.57;3.27;;;;;;;;;;5077721;28;20475;-64
2024/03/11 12:42:09;;;;;;;3.77;3.47;;;;;;;;;;5076603;28;20478;-65
2024/03/11 12:44:36;;;;;;;4.70;4.40;;;;;;;;;;5078437;28;20479;-68
2024/03/11 12:47:05;;;;;;;4.43;4.23;;;;;;;;;;5077833;28;20711;-69
2024/03/11 12:49:31;;;;;;;3.90;3.70;;;;;;;;;;5075036;28;20781;-66
2024/03/11 12:52:03;;;;;;;4.07;3.77;;;;;;;;;;5075182;28;20513;-65
2024/03/11 12:54:30;;;;;;;3.77;3.57;;;;;;;;;;5081252;28;20900;-70
2024/03/11 12:57:04;;;;;;;3.57;3.37;;;;;;;;;;5079600;28;20840;-69
2024/03/11 12:59:31;;;;;;;3.07;2.93;;;;;;;;;;5077519;28;20463;-66
2024/03/11 13:02:09;;;;;;;3.07;2.87;;;;;;;;;;5081780;28;20483;-64
2024/03/11 13:04:36;;;;;;;4.17;3.03;;;;;;;;;;5080661;28;20490;-66
2024/03/11 13:07:05;;;;;;;3.00;2.80;;;;;;;;;;5083362;28;20482;-68
2024/03/11 13:09:32;;;;;;;2.57;2.47;;;;;;;;;;5073500;28;20527;-69
2024/03/11 13:12:01;;;;;;;4.10;3.90;;;;;;;;;;5081249;28;20463;-69
2024/03/11 13:14:28;;;;;;;5.60;4.10;;;;;;;;;;5073351;28;20455;-69
2024/03/11 13:16:55;;;;;;;4.10;3.90;;;;;;;;;;5082441;28;20444;-69
2024/03/11 13:19:25;;;;;;;4.37;4.17;;;;;;;;;;5080494;28;21166;-71
2024/03/11 13:21:52;;;;;;;3.80;3.63;;;;;;;;;;5079334;28;20555;-70
2024/03/11 13:24:23;;;;;;;3.20;3.10;;;;;;;;;;5079928;28;20455;-70
2024/03/11 13:26:50;;;;;;;4.20;4.00;;;;;;;;;;5076254;28;20460;-71
2024/03/11 13:29:17;;;;;;;3.47;3.30;;;;;;;;;;5079875;28;20448;-69
2024/03/11 13:31:44;;;;;;;3.33;3.23;;;;;;;;;;5080764;28;20467;-69
2024/03/11 13:34:10;;;;;;;3.90;3.70;;;;;;;;;;5084492;28;20512;-69
2024/03/11 13:36:37;;;;;;;6.60;3.90;;;;;;;;;;5078144;28;20452;-66
2024/03/11 13:39:15;;;;;;;3.33;3.23;;;;;;;;;;5079655;28;20454;-67
2024/03/11 13:41:43;;;;;;;3.27;3.17;;;;;;;;;;5075413;28;20523;-69
2024/03/11 13:44:10;;;;;;;2.80;2.60;;;;;;;;;;5079620;28;20459;-67
2024/03/11 13:46:37;;;;;;;2.87;2.70;;;;;;;;;;5079584;28;20502;-73
2024/03/11 13:49:03;;;;;;;2.43;2.33;;;;;;;;;;5079926;28;20482;-68
2024/03/11 13:51:30;;;;;;;2.40;2.30;;;;;;;;;;5074076;28;20455;-69
2024/03/11 13:53:56;;;;;;;2.67;2.47;;;;;;;;;;5080622;28;20487;-68
2024/03/11 13:56:24;;;;;;;3.80;3.60;;;;;;;;;;5075212;28;20602;-68
2024/03/11 13:58:53;;;;;;;4.10;3.70;;;;;;;;;;5075061;28;20475;-65
2024/03/11 14:01:19;;;;;;;3.93;3.80;;;;;;;;;;5077495;28;20452;-64
2024/03/11 14:03:45;;;;;;;3.80;3.60;;;;;;;;;;5078853;28;20448;-65
2024/03/11 14:06:13;;;;;;;3.90;3.50;;;;;;;;;;5078397;28;20448;-66
2024/03/11 14:08:40;;;;;;;3.23;3.13;;;;;;;;;;5077077;28;20497;-68
2024/03/11 14:11:07;;;;;;;3.10;2.93;;;;;;;;;;5075917;28;20455;-77
2024/03/11 14:13:34;;;;;;;2.83;2.73;;;;;;;;;;5080319;28;20459;-77
2024/03/11 14:16:02;;;;;;;2.60;2.40;;;;;;;;;;5077059;28;20472;-79
2024/03/11 14:18:29;;;;;;;2.53;2.43;;;;;;;;;;5077105;28;20468;-67
2024/03/11 14:20:55;;;;;;;4.00;3.87;;;;;;;;;;5083763;28;20467;-68
2024/03/11 14:23:22;;;;;;;3.83;3.63;;;;;;;;;;5082092;28;20933;-67